Time;durP1;ratioP1;P1;durP2;ratioP2;P2;SDS_P1;SDS_P2;PMS_P1;PMS_P2;Temp;Humidity;BMP_temperature;BMP_pressure;BME280_temperature;BME280_humidity;BME280_pressure;Samples;Min_cycle;Max_cycle;Signal;HPM_P1;HPM_P2
2024/01/26 00:01:55;;;;;;;11.20;7.33;;;9.90;30.10;;;;;;5087821;28;20484;-68
2024/01/26 00:04:23;;;;;;;11.20;6.87;;;9.90;30.10;;;;;;5088809;28;20475;-68
2024/01/26 00:06:50;;;;;;;12.87;7.20;;;9.90;30.20;;;;;;5084834;28;20484;-68
2024/01/26 00:09:17;;;;;;;13.83;8.13;;;9.90;30.00;;;;;;5088027;28;20456;-68
2024/01/26 00:11:44;;;;;;;12.40;8.40;;;9.90;30.00;;;;;;5086645;28;20468;-69
2024/01/26 00:14:11;;;;;;;13.40;8.20;;;9.90;30.00;;;;;;5087073;28;20452;-68
2024/01/26 00:16:39;;;;;;;12.20;7.03;;;9.90;29.80;;;;;;5086058;28;20475;-69
2024/01/26 00:19:06;;;;;;;12.83;7.20;;;9.90;29.90;;;;;;5089259;28;20513;-69
2024/01/26 00:21:35;;;;;;;13.50;7.43;;;9.90;29.80;;;;;;5088472;28;20456;-69
2024/01/26 00:24:01;;;;;;;11.80;7.33;;;9.90;29.90;;;;;;5088599;28;20456;-69
2024/01/26 00:26:28;;;;;;;12.77;7.67;;;9.90;30.00;;;;;;5086438;28;20972;-69
2024/01/26 00:28:55;;;;;;;13.57;7.47;;;9.90;30.00;;;;;;5087622;28;22887;-69
2024/01/26 00:31:22;;;;;;;12.50;8.00;;;10.00;30.00;;;;;;5085790;28;20552;-69
2024/01/26 00:33:49;;;;;;;14.47;8.60;;;9.90;30.00;;;;;;5086744;28;20487;-70
2024/01/26 00:36:16;;;;;;;14.07;8.70;;;9.90;30.00;;;;;;5087954;28;20460;-69
2024/01/26 00:38:44;;;;;;;14.57;9.00;;;9.90;30.00;;;;;;5087311;28;20460;-69
2024/01/26 00:41:11;;;;;;;15.43;8.17;;;9.90;30.10;;;;;;5086663;28;20919;-69
2024/01/26 00:43:38;;;;;;;12.20;6.83;;;9.80;30.20;;;;;;5086589;28;20518;-69
2024/01/26 00:46:05;;;;;;;14.77;8.80;;;9.80;30.40;;;;;;5083601;28;20457;-67
2024/01/26 00:48:32;;;;;;;14.80;8.87;;;9.80;30.50;;;;;;5089582;28;20983;-68
2024/01/26 00:51:00;;;;;;;14.60;8.63;;;9.80;30.60;;;;;;5088237;28;20496;-69
2024/01/26 00:53:27;;;;;;;12.73;8.53;;;9.80;30.60;;;;;;5084595;28;20467;-69
2024/01/26 00:55:55;;;;;;;12.57;7.40;;;9.80;30.40;;;;;;5083840;28;20926;-69
2024/01/26 00:58:23;;;;;;;14.77;8.40;;;9.80;30.80;;;;;;5087311;28;20480;-68
2024/01/26 01:00:49;;;;;;;13.60;8.43;;;9.80;30.80;;;;;;5085095;28;20471;-68
2024/01/26 01:03:16;;;;;;;14.10;8.93;;;9.80;30.80;;;;;;5084284;28;20465;-68
2024/01/26 01:05:43;;;;;;;12.50;8.50;;;9.80;30.80;;;;;;5067297;22;21009;-67
2024/01/26 01:08:10;;;;;;;14.30;9.00;;;9.80;30.90;;;;;;5047301;28;20482;-68
2024/01/26 01:10:37;;;;;;;15.37;8.90;;;9.80;31.00;;;;;;5046897;28;20462;-67
2024/01/26 01:13:05;;;;;;;15.20;8.60;;;9.70;31.30;;;;;;5047595;28;20458;-67
2024/01/26 01:15:34;;;;;;;14.20;8.70;;;9.70;31.40;;;;;;5044232;28;20458;-67
2024/01/26 01:18:01;;;;;;;15.27;8.30;;;9.70;31.60;;;;;;5044360;28;20482;-68
2024/01/26 01:20:28;;;;;;;15.27;9.00;;;9.70;31.60;;;;;;5046128;28;20508;-68
2024/01/26 01:22:57;;;;;;;16.30;9.33;;;9.70;31.60;;;;;;5047561;28;21064;-68
2024/01/26 01:25:24;;;;;;;16.97;9.30;;;9.70;31.70;;;;;;5043223;28;20462;-67
2024/01/26 01:27:52;;;;;;;17.90;8.60;;;9.60;31.60;;;;;;5046855;28;21219;-68
2024/01/26 01:30:20;;;;;;;13.13;8.23;;;9.70;31.80;;;;;;5041709;28;20529;-68
2024/01/26 01:32:47;;;;;;;16.77;9.13;;;9.60;31.60;;;;;;5043192;28;20466;-67
2024/01/26 01:35:14;;;;;;;14.23;9.00;;;9.70;31.60;;;;;;5051883;28;20469;-67
2024/01/26 01:37:41;;;;;;;16.57;9.53;;;9.70;31.70;;;;;;5071096;28;20534;-68
2024/01/26 01:40:09;;;;;;;14.50;9.17;;;9.70;31.80;;;;;;5065568;28;20474;-68
2024/01/26 01:42:36;;;;;;;14.50;8.00;;;9.70;31.70;;;;;;5048437;28;20921;-68
2024/01/26 01:45:13;;;;;;;14.20;9.10;;;9.70;31.90;;;;;;5046010;28;20481;-67
2024/01/26 01:47:42;;;;;;;16.10;10.80;;;9.70;32.00;;;;;;5043787;28;20902;-68
2024/01/26 01:50:09;;;;;;;16.47;9.73;;;9.70;31.80;;;;;;5043994;28;20458;-67
2024/01/26 01:52:40;;;;;;;16.23;9.87;;;9.60;31.90;;;;;;5046649;28;20512;-68
2024/01/26 01:55:09;;;;;;;14.73;10.00;;;9.60;32.00;;;;;;5042081;28;20525;-67
2024/01/26 01:57:40;;;;;;;17.33;10.53;;;9.60;32.10;;;;;;5043596;28;20982;-68
2024/01/26 02:00:15;;;;;;;15.33;9.40;;;9.60;32.10;;;;;;5044874;28;20509;-69
2024/01/26 02:02:45;;;;;;;18.63;9.23;;;9.60;32.10;;;;;;5036366;28;20477;-69
2024/01/26 02:05:12;;;;;;;16.30;9.20;;;9.70;32.10;;;;;;5044090;28;20520;-68
2024/01/26 02:07:39;;;;;;;16.50;10.07;;;9.70;32.00;;;;;;5046481;28;20489;-68
2024/01/26 02:10:07;;;;;;;15.27;9.57;;;9.70;31.90;;;;;;5046952;28;20839;-68
2024/01/26 02:12:34;;;;;;;19.60;10.27;;;9.70;31.80;;;;;;5029021;28;20458;-68
2024/01/26 02:15:02;;;;;;;16.13;9.40;;;9.70;32.00;;;;;;5046374;28;20462;-68
2024/01/26 02:17:32;;;;;;;16.50;8.60;;;9.60;32.00;;;;;;5046268;28;20489;-68
2024/01/26 02:20:00;;;;;;;16.27;9.87;;;9.70;32.20;;;;;;5042153;28;20490;-68
2024/01/26 02:22:27;;;;;;;15.70;9.47;;;9.60;32.10;;;;;;5043601;28;20500;-68
2024/01/26 02:24:55;;;;;;;15.87;8.80;;;9.60;32.10;;;;;;5045144;28;20889;-68
2024/01/26 02:27:22;;;;;;;13.90;7.80;;;9.60;32.10;;;;;;5045009;28;20478;-68
2024/01/26 02:29:49;;;;;;;15.67;8.33;;;9.60;32.10;;;;;;5041911;28;20465;-69
2024/01/26 02:32:16;;;;;;;16.43;8.27;;;9.60;32.20;;;;;;5038594;28;20512;-68
2024/01/26 02:34:42;;;;;;;13.80;8.73;;;9.60;32.40;;;;;;5046729;28;20466;-68
2024/01/26 02:37:10;;;;;;;13.67;8.90;;;9.70;32.30;;;;;;5043598;28;20489;-68
2024/01/26 02:39:37;;;;;;;14.57;8.50;;;9.70;32.30;;;;;;5045374;28;20462;-69
2024/01/26 02:42:05;;;;;;;12.60;7.50;;;9.60;32.30;;;;;;5045406;28;21001;-68
2024/01/26 02:44:32;;;;;;;13.37;7.83;;;9.60;32.70;;;;;;5044036;28;20478;-68
2024/01/26 02:46:59;;;;;;;13.27;8.60;;;9.60;32.20;;;;;;5043793;28;20497;-67
2024/01/26 02:49:26;;;;;;;12.77;8.00;;;9.60;32.50;;;;;;5045098;28;20486;-68
2024/01/26 02:51:53;;;;;;;11.53;7.30;;;9.60;32.50;;;;;;5046419;28;20454;-68
2024/01/26 02:54:20;;;;;;;13.20;7.17;;;9.60;32.40;;;;;;5043522;28;20479;-67
2024/01/26 02:56:47;;;;;;;13.80;7.53;;;9.70;32.50;;;;;;5046703;28;20497;-67
2024/01/26 02:59:15;;;;;;;12.23;7.80;;;9.60;32.40;;;;;;5046254;28;20860;-67
2024/01/26 03:01:42;;;;;;;15.00;7.27;;;9.60;32.30;;;;;;5045154;28;20478;-67
2024/01/26 03:04:08;;;;;;;11.93;7.50;;;9.60;32.10;;;;;;5045837;28;20466;-69
2024/01/26 03:06:35;;;;;;;11.73;7.17;;;9.60;32.10;;;;;;5043597;28;20477;-68
2024/01/26 03:09:03;;;;;;;15.17;6.37;;;9.60;32.10;;;;;;5045788;28;20469;-68
2024/01/26 03:11:37;;;;;;;12.93;6.80;;;9.60;32.20;;;;;;5046326;28;20454;-68
2024/01/26 03:14:05;;;;;;;13.03;8.00;;;9.60;32.20;;;;;;5044647;28;20550;-68
2024/01/26 03:16:34;;;;;;;12.17;7.67;;;9.60;32.10;;;;;;5043357;28;21848;-68
2024/01/26 03:19:01;;;;;;;15.27;7.73;;;9.60;32.20;;;;;;5043709;28;20466;-68
2024/01/26 03:21:28;;;;;;;10.80;7.30;;;9.60;32.10;;;;;;5046407;28;20505;-68
2024/01/26 03:23:54;;;;;;;9.50;6.40;;;9.60;32.20;;;;;;5036210;28;20459;-68
2024/01/26 03:26:21;;;;;;;15.63;6.40;;;9.60;31.90;;;;;;5045575;28;20461;-69
2024/01/26 03:28:48;;;;;;;11.13;7.50;;;9.60;32.00;;;;;;5046419;28;20807;-67
2024/01/26 03:31:15;;;;;;;11.00;6.67;;;9.50;32.00;;;;;;5047085;28;20512;-68
2024/01/26 03:33:44;;;;;;;12.53;6.50;;;9.50;31.90;;;;;;5050957;28;20462;-67
2024/01/26 03:36:13;;;;;;;13.60;7.80;;;9.50;32.10;;;;;;5045912;28;20466;-67
2024/01/26 03:38:40;;;;;;;12.53;6.30;;;9.50;32.00;;;;;;5043042;28;20486;-67
2024/01/26 03:41:06;;;;;;;13.30;5.93;;;9.50;31.90;;;;;;5048484;28;20490;-67
2024/01/26 03:43:33;;;;;;;13.00;6.90;;;9.50;31.90;;;;;;5048731;28;20477;-67
2024/01/26 03:46:01;;;;;;;14.83;6.70;;;9.50;31.80;;;;;;5048588;28;20481;-68
2024/01/26 03:48:28;;;;;;;10.27;5.97;;;9.60;31.90;;;;;;5047593;28;20481;-67
2024/01/26 03:50:57;;;;;;;11.63;6.07;;;9.50;31.70;;;;;;5046129;28;20466;-67
2024/01/26 03:53:24;;;;;;;10.50;5.80;;;9.50;32.50;;;;;;5041682;28;20454;-70
2024/01/26 03:55:51;;;;;;;11.53;6.43;;;9.50;31.80;;;;;;5049715;28;20458;-68
2024/01/26 03:58:18;;;;;;;10.63;6.73;;;9.50;31.80;;;;;;5049057;28;20477;-68
2024/01/26 04:00:45;;;;;;;11.57;6.37;;;9.50;31.80;;;;;;5044005;28;20815;-69
2024/01/26 04:03:12;;;;;;;13.70;6.10;;;9.50;31.80;;;;;;5049590;28;20473;-68
2024/01/26 04:05:39;;;;;;;10.63;5.60;;;9.50;31.80;;;;;;5050816;28;20460;-68
2024/01/26 04:08:08;;;;;;;9.50;5.70;;;9.50;31.90;;;;;;5042141;28;20478;-68
2024/01/26 04:10:34;;;;;;;17.00;4.90;;;9.50;32.00;;;;;;5048079;28;20990;-69
2024/01/26 04:13:01;;;;;;;11.73;6.03;;;9.40;32.00;;;;;;5044864;28;20558;-68
2024/01/26 04:15:28;;;;;;;8.90;5.23;;;9.50;31.90;;;;;;5045584;28;20458;-68
2024/01/26 04:17:56;;;;;;;9.33;5.43;;;9.50;32.00;;;;;;5046727;28;20964;-67
2024/01/26 04:20:23;;;;;;;11.87;5.40;;;9.50;32.00;;;;;;5049652;28;20453;-69
2024/01/26 04:22:50;;;;;;;10.60;5.30;;;9.40;31.90;;;;;;5049127;28;20466;-68
2024/01/26 04:25:18;;;;;;;10.67;6.50;;;9.40;32.00;;;;;;5046398;28;20624;-68
2024/01/26 04:27:45;;;;;;;11.77;6.47;;;9.50;32.20;;;;;;5025956;28;20482;-68
2024/01/26 04:30:14;;;;;;;10.83;6.00;;;9.40;32.00;;;;;;5047437;28;20446;-67
2024/01/26 04:32:40;;;;;;;12.17;6.80;;;9.40;32.00;;;;;;5045872;28;20457;-67
2024/01/26 04:35:08;;;;;;;10.03;5.70;;;9.50;32.10;;;;;;5050636;28;20461;-67
2024/01/26 04:37:34;;;;;;;10.80;6.63;;;9.40;31.80;;;;;;5060575;28;20481;-67
2024/01/26 04:40:00;;;;;;;11.27;7.40;;;9.50;31.90;;;;;;5074013;28;20450;-68
2024/01/26 04:42:28;;;;;;;9.67;5.00;;;9.50;31.90;;;;;;5056924;28;20557;-68
2024/01/26 04:44:56;;;;;;;9.53;5.07;;;9.50;31.80;;;;;;5047257;28;20204;-68
2024/01/26 04:47:23;;;;;;;9.70;5.77;;;9.50;31.90;;;;;;5044656;28;20475;-68
2024/01/26 04:49:50;;;;;;;9.27;4.93;;;9.50;31.70;;;;;;5043871;28;20451;-69
2024/01/26 04:52:17;;;;;;;9.97;5.73;;;9.50;31.60;;;;;;5045944;28;20947;-68
2024/01/26 04:54:43;;;;;;;8.70;4.97;;;9.40;31.60;;;;;;5047235;28;20466;-68
2024/01/26 04:57:10;;;;;;;8.53;5.03;;;9.40;31.60;;;;;;5046845;28;21475;-69
2024/01/26 04:59:38;;;;;;;10.70;5.93;;;9.50;31.50;;;;;;5048819;28;20458;-68
2024/01/26 05:02:05;;;;;;;7.90;4.23;;;9.50;31.50;;;;;;5043302;28;20868;-69
2024/01/26 05:04:32;;;;;;;9.77;4.93;;;9.40;31.60;;;;;;5048841;28;20978;-68
2024/01/26 05:06:59;;;;;;;9.63;5.17;;;9.50;31.40;;;;;;5045954;28;20473;-68
2024/01/26 05:09:26;;;;;;;8.70;4.83;;;9.50;31.40;;;;;;5045901;28;20992;-69
2024/01/26 05:11:53;;;;;;;9.23;5.70;;;9.50;31.30;;;;;;5047989;28;20485;-69
2024/01/26 05:14:20;;;;;;;8.47;4.87;;;9.50;31.00;;;;;;5045766;28;20458;-68
2024/01/26 05:16:48;;;;;;;8.83;5.10;;;9.50;31.10;;;;;;5043934;28;20496;-68
2024/01/26 05:19:15;;;;;;;7.60;4.80;;;9.50;31.00;;;;;;5041300;28;20458;-68
2024/01/26 05:21:42;;;;;;;7.97;4.60;;;9.50;31.00;;;;;;5042818;28;20485;-69
2024/01/26 05:24:09;;;;;;;17.43;6.47;;;9.50;30.90;;;;;;5045299;28;20943;-69
2024/01/26 05:26:38;;;;;;;10.60;4.80;;;9.50;30.80;;;;;;5046747;28;20508;-69
2024/01/26 05:29:06;;;;;;;9.23;4.47;;;9.50;30.70;;;;;;5043641;28;20466;-68
2024/01/26 05:31:34;;;;;;;7.77;4.93;;;9.50;30.60;;;;;;5045737;28;20498;-69
2024/01/26 05:34:02;;;;;;;8.60;4.93;;;9.50;30.60;;;;;;5046830;28;20467;-70
2024/01/26 05:36:29;;;;;;;9.27;4.80;;;9.50;30.70;;;;;;5047577;28;20969;-71
2024/01/26 05:38:55;;;;;;;9.17;5.13;;;9.50;30.60;;;;;;5044678;28;20498;-69
2024/01/26 05:41:22;;;;;;;9.90;5.10;;;9.50;30.40;;;;;;5044545;28;20489;-69
2024/01/26 05:43:50;;;;;;;10.10;5.40;;;9.50;30.40;;;;;;5045726;28;20466;-69
2024/01/26 05:46:17;;;;;;;9.80;6.17;;;9.50;30.50;;;;;;5045071;28;22262;-68
2024/01/26 05:48:45;;;;;;;10.53;5.70;;;9.50;30.50;;;;;;5044406;28;20474;-68
2024/01/26 05:51:14;;;;;;;11.43;5.27;;;9.50;30.50;;;;;;5044912;28;20458;-68
2024/01/26 05:53:40;;;;;;;10.00;5.83;;;9.50;30.40;;;;;;5040806;28;20462;-69
2024/01/26 05:56:07;;;;;;;8.47;4.47;;;9.50;30.40;;;;;;5044534;28;20942;-69
2024/01/26 05:58:34;;;;;;;9.00;5.27;;;9.50;30.30;;;;;;5042710;28;20491;-70
2024/01/26 06:01:01;;;;;;;7.90;4.60;;;9.50;30.50;;;;;;5046970;28;20854;-69
2024/01/26 06:03:28;;;;;;;8.47;4.80;;;9.50;30.40;;;;;;5046441;28;20553;-69
2024/01/26 06:05:55;;;;;;;7.30;4.77;;;9.50;30.40;;;;;;5044482;28;20469;-69
2024/01/26 06:08:23;;;;;;;7.60;4.13;;;9.50;30.50;;;;;;5042442;28;20478;-69
2024/01/26 06:10:51;;;;;;;7.23;4.60;;;9.40;30.40;;;;;;5045467;28;20481;-69
2024/01/26 06:13:18;;;;;;;7.97;4.30;;;9.40;30.40;;;;;;5042381;28;21147;-68
2024/01/26 06:15:45;;;;;;;7.23;3.97;;;9.50;30.30;;;;;;5045649;28;20458;-68
2024/01/26 06:18:12;;;;;;;6.73;3.70;;;9.40;30.30;;;;;;5048301;28;20478;-70
2024/01/26 06:20:39;;;;;;;7.70;4.40;;;9.40;30.00;;;;;;5044885;28;20465;-69
2024/01/26 06:23:06;;;;;;;8.50;4.50;;;9.50;30.10;;;;;;5045381;28;20487;-68
2024/01/26 06:25:33;;;;;;;11.20;4.90;;;9.40;30.00;;;;;;5045010;28;20454;-69
2024/01/26 06:28:00;;;;;;;6.43;3.87;;;9.40;30.00;;;;;;5047514;28;20490;-69
2024/01/26 06:30:27;;;;;;;6.77;4.07;;;9.50;30.00;;;;;;5044168;28;20458;-68
2024/01/26 06:32:54;;;;;;;8.80;3.73;;;9.40;30.00;;;;;;5044920;28;20878;-67
2024/01/26 06:35:21;;;;;;;6.73;3.33;;;9.40;29.80;;;;;;5039984;28;20465;-69
2024/01/26 06:37:48;;;;;;;6.80;3.43;;;9.40;29.90;;;;;;5046404;28;20482;-68
2024/01/26 06:40:15;;;;;;;6.27;3.30;;;9.40;29.90;;;;;;5046852;28;20458;-68
2024/01/26 06:42:43;;;;;;;5.30;2.80;;;9.40;30.00;;;;;;5046414;28;20560;-68
2024/01/26 06:45:11;;;;;;;6.07;2.70;;;9.40;29.90;;;;;;5044467;28;20457;-68
2024/01/26 06:47:38;;;;;;;5.43;2.17;;;9.40;29.80;;;;;;5045273;28;20478;-68
2024/01/26 06:50:06;;;;;;;5.60;2.77;;;9.40;29.60;;;;;;5046068;28;20480;-69
2024/01/26 06:52:33;;;;;;;5.10;3.00;;;9.40;29.60;;;;;;5046452;28;20451;-69
2024/01/26 06:55:00;;;;;;;5.37;2.50;;;9.30;30.00;;;;;;5042315;28;20473;-69
2024/01/26 06:57:27;;;;;;;4.90;2.20;;;9.40;30.40;;;;;;5040962;28;20478;-70
2024/01/26 06:59:55;;;;;;;5.80;2.50;;;9.30;30.00;;;;;;5042203;28;20992;-69
2024/01/26 07:02:22;;;;;;;7.13;2.40;;;9.40;29.60;;;;;;5041800;28;20470;-69
2024/01/26 07:04:49;;;;;;;5.00;2.33;;;9.40;29.60;;;;;;5046212;28;20469;-68
2024/01/26 07:07:16;;;;;;;4.07;1.87;;;9.40;29.60;;;;;;5044136;28;20478;-69
2024/01/26 07:09:43;;;;;;;7.30;2.70;;;9.50;29.50;;;;;;5045721;28;20809;-68
2024/01/26 07:12:10;;;;;;;4.20;1.50;;;9.50;29.40;;;;;;5043400;28;20450;-69
2024/01/26 07:14:36;;;;;;;5.20;2.00;;;9.50;29.40;;;;;;5043026;28;20460;-69
2024/01/26 07:17:04;;;;;;;4.63;2.07;;;9.50;29.20;;;;;;5041201;28;20473;-69
2024/01/26 07:19:31;;;;;;;6.87;2.10;;;9.50;29.30;;;;;;5044004;28;20973;-69
2024/01/26 07:21:58;;;;;;;4.90;1.77;;;9.50;29.20;;;;;;5043829;28;20864;-69
2024/01/26 07:24:25;;;;;;;3.80;1.63;;;9.50;29.00;;;;;;5042054;28;21072;-69
2024/01/26 07:26:53;;;;;;;5.63;1.70;;;9.50;28.90;;;;;;5042423;28;20500;-69
2024/01/26 07:29:20;;;;;;;4.20;1.70;;;9.60;28.90;;;;;;5044913;28;20891;-68
2024/01/26 07:31:47;;;;;;;4.50;1.63;;;9.60;28.70;;;;;;5041928;28;20467;-69
2024/01/26 07:34:15;;;;;;;4.77;1.83;;;9.60;28.60;;;;;;5044794;28;20446;-70
2024/01/26 07:36:42;;;;;;;4.80;1.53;;;9.60;28.30;;;;;;5041615;28;20492;-69
2024/01/26 07:39:09;;;;;;;6.77;1.90;;;9.60;28.40;;;;;;5060868;28;20485;-69
2024/01/26 07:41:36;;;;;;;4.77;2.03;;;9.70;28.30;;;;;;5072318;28;20454;-69
2024/01/26 07:44:03;;;;;;;4.70;1.80;;;9.70;28.10;;;;;;5051429;28;20449;-69
2024/01/26 07:46:30;;;;;;;3.97;1.37;;;9.70;28.30;;;;;;5042636;28;20454;-71
2024/01/26 07:48:57;;;;;;;4.33;1.77;;;9.70;28.30;;;;;;5040564;28;20548;-69
2024/01/26 07:51:25;;;;;;;4.30;1.83;;;9.80;28.10;;;;;;5044982;28;20564;-70
2024/01/26 07:53:52;;;;;;;10.30;1.93;;;9.80;27.80;;;;;;5042826;28;20461;-70
2024/01/26 07:56:19;;;;;;;3.97;1.80;;;9.80;27.90;;;;;;5044213;28;20461;-69
2024/01/26 07:58:46;;;;;;;3.80;1.70;;;9.80;27.80;;;;;;5045075;28;20980;-70
2024/01/26 08:01:13;;;;;;;4.43;1.63;;;9.80;28.10;;;;;;5043715;28;20470;-70
2024/01/26 08:03:39;;;;;;;4.63;1.63;;;9.80;28.00;;;;;;5042810;28;20595;-69
2024/01/26 08:06:07;;;;;;;4.10;1.73;;;9.90;28.10;;;;;;5047398;28;20469;-69
2024/01/26 08:08:35;;;;;;;4.60;1.60;;;10.00;27.60;;;;;;5046895;28;20485;-69
2024/01/26 08:11:02;;;;;;;5.30;2.10;;;10.00;27.40;;;;;;5047703;28;20454;-69
2024/01/26 08:13:29;;;;;;;4.07;1.93;;;10.00;27.20;;;;;;5040990;28;20990;-68
2024/01/26 08:15:56;;;;;;;4.60;1.67;;;10.10;27.20;;;;;;5042486;28;20446;-69
2024/01/26 08:18:23;;;;;;;4.83;1.87;;;10.10;27.10;;;;;;5045935;28;20485;-69
2024/01/26 08:20:50;;;;;;;5.10;1.87;;;10.10;27.00;;;;;;5047799;28;20461;-68
2024/01/26 08:23:17;;;;;;;4.63;1.90;;;10.10;26.80;;;;;;5047265;28;20482;-69
2024/01/26 08:25:45;;;;;;;4.57;1.60;;;10.20;26.80;;;;;;5049048;28;20465;-68
2024/01/26 08:28:12;;;;;;;4.17;1.73;;;10.20;26.60;;;;;;5050606;28;20474;-69
2024/01/26 08:30:41;;;;;;;4.57;1.60;;;10.30;26.60;;;;;;5045526;28;20494;-68
2024/01/26 08:33:09;;;;;;;9.03;1.90;;;10.40;25.90;;;;;;5050001;28;20451;-68
2024/01/26 08:35:35;;;;;;;6.20;1.70;;;10.50;25.70;;;;;;5042941;28;20468;-68
2024/01/26 08:38:03;;;;;;;6.70;2.30;;;10.50;25.50;;;;;;5051070;28;20482;-67
2024/01/26 08:40:30;;;;;;;4.53;1.40;;;10.60;25.20;;;;;;5047908;28;20450;-67
2024/01/26 08:42:58;;;;;;;7.20;1.57;;;10.70;25.10;;;;;;5068378;22;20493;-67
2024/01/26 08:45:25;;;;;;;4.67;1.70;;;10.80;24.50;;;;;;5044318;28;20462;-68
2024/01/26 08:47:52;;;;;;;3.83;1.47;;;10.90;24.40;;;;;;5048257;28;20482;-67
2024/01/26 08:50:19;;;;;;;4.20;1.77;;;11.00;23.40;;;;;;5048410;28;20531;-67
2024/01/26 08:52:46;;;;;;;3.83;1.60;;;11.10;23.10;;;;;;5043848;28;20459;-67
2024/01/26 08:55:13;;;;;;;4.77;2.20;;;11.30;22.40;;;;;;5043172;28;20489;-67
2024/01/26 08:57:43;;;;;;;4.20;1.50;;;11.60;22.30;;;;;;5042124;28;20509;-66
2024/01/26 09:00:12;;;;;;;5.23;1.93;;;11.90;21.40;;;;;;5041818;28;20501;-67
2024/01/26 09:02:39;;;;;;;5.87;1.80;;;12.00;20.00;;;;;;5039032;28;20477;-68
2024/01/26 09:05:08;;;;;;;4.20;1.70;;;12.10;19.30;;;;;;5045677;28;20469;-67
2024/01/26 09:07:34;;;;;;;5.60;1.93;;;12.10;19.20;;;;;;5044288;28;20490;-67
2024/01/26 09:10:01;;;;;;;4.63;1.77;;;12.10;18.60;;;;;;5044461;28;20834;-67
2024/01/26 09:12:28;;;;;;;5.57;1.93;;;12.10;18.60;;;;;;5046852;28;20454;-67
2024/01/26 09:14:55;;;;;;;4.63;1.90;;;12.10;18.70;;;;;;5045587;28;20461;-67
2024/01/26 09:17:23;;;;;;;4.43;2.17;;;12.20;18.40;;;;;;5044328;28;20477;-67
2024/01/26 09:19:50;;;;;;;6.90;1.77;;;12.10;18.40;;;;;;5046279;28;20466;-68
2024/01/26 09:22:16;;;;;;;4.40;1.70;;;12.20;18.40;;;;;;5047575;28;20797;-67
2024/01/26 09:24:43;;;;;;;4.67;2.03;;;12.40;18.40;;;;;;5045964;28;20459;-67
2024/01/26 09:27:10;;;;;;;5.27;1.70;;;12.80;17.80;;;;;;5040448;28;20485;-67
2024/01/26 09:29:37;;;;;;;6.30;2.60;;;13.20;16.90;;;;;;5030725;28;20663;-67
2024/01/26 09:32:06;;;;;;;4.07;1.90;;;13.50;15.50;;;;;;5037267;28;20502;-68
2024/01/26 09:34:34;;;;;;;5.00;1.60;;;13.70;15.10;;;;;;5041115;28;20929;-68
2024/01/26 09:37:01;;;;;;;4.80;2.13;;;13.80;14.30;;;;;;5038120;28;20493;-68
2024/01/26 09:39:28;;;;;;;5.53;1.80;;;13.70;14.20;;;;;;5040131;28;21313;-68
2024/01/26 09:41:55;;;;;;;4.03;1.77;;;13.90;14.20;;;;;;5036259;28;20886;-68
2024/01/26 09:44:22;;;;;;;4.50;1.53;;;13.90;14.00;;;;;;5044419;28;21060;-68
2024/01/26 09:46:50;;;;;;;4.23;1.40;;;13.90;13.60;;;;;;5023773;28;20547;-68
2024/01/26 09:49:16;;;;;;;4.27;1.73;;;13.80;13.80;;;;;;5039774;28;20458;-68
2024/01/26 09:51:45;;;;;;;6.07;1.67;;;13.70;13.50;;;;;;5040532;28;20482;-68
2024/01/26 09:54:13;;;;;;;4.83;1.67;;;13.70;13.80;;;;;;5042758;28;20465;-68
2024/01/26 09:56:42;;;;;;;4.30;1.53;;;13.90;13.30;;;;;;5035944;28;20500;-68
2024/01/26 09:59:11;;;;;;;4.70;1.70;;;14.10;12.90;;;;;;5042166;28;21078;-67
2024/01/26 10:01:39;;;;;;;4.20;1.80;;;14.10;12.80;;;;;;5040761;28;20474;-68
2024/01/26 10:04:07;;;;;;;5.93;1.73;;;14.20;12.90;;;;;;5044469;28;20481;-68
2024/01/26 10:06:35;;;;;;;4.40;1.70;;;14.20;12.60;;;;;;5043086;28;20466;-68
2024/01/26 10:09:04;;;;;;;4.00;1.33;;;14.30;12.80;;;;;;5044293;28;20461;-68
2024/01/26 10:11:31;;;;;;;3.90;1.60;;;14.30;12.60;;;;;;5042547;28;20864;-68
2024/01/26 10:13:58;;;;;;;3.57;1.53;;;14.40;12.50;;;;;;5044865;28;20967;-68
2024/01/26 10:16:25;;;;;;;4.90;1.50;;;14.40;12.10;;;;;;5044336;28;20828;-67
2024/01/26 10:18:52;;;;;;;8.23;1.83;;;14.20;12.00;;;;;;5039067;28;20470;-68
2024/01/26 10:21:20;;;;;;;5.03;1.67;;;14.10;12.50;;;;;;5041420;28;20984;-67
2024/01/26 10:23:47;;;;;;;4.80;1.50;;;13.90;12.80;;;;;;5043166;28;20481;-67
2024/01/26 10:26:15;;;;;;;4.70;1.47;;;13.70;13.10;;;;;;5043181;28;20469;-67
2024/01/26 10:28:44;;;;;;;4.53;1.50;;;13.60;13.20;;;;;;5042731;28;20461;-67
2024/01/26 10:31:10;;;;;;;3.97;1.57;;;13.50;13.40;;;;;;5036453;28;20482;-67
2024/01/26 10:33:40;;;;;;;5.40;1.50;;;13.40;13.80;;;;;;5041651;28;20983;-68
2024/01/26 10:36:10;;;;;;;4.30;1.60;;;13.40;13.90;;;;;;5046748;28;20477;-69
2024/01/26 10:38:38;;;;;;;4.30;1.87;;;13.30;14.30;;;;;;5041827;28;20484;-68
2024/01/26 10:41:05;;;;;;;3.43;1.27;;;13.20;14.50;;;;;;5041235;28;20477;-68
2024/01/26 10:43:33;;;;;;;4.30;1.63;;;13.20;14.70;;;;;;5043355;28;20473;-68
2024/01/26 10:46:02;;;;;;;4.60;1.33;;;13.20;14.30;;;;;;5044985;28;20466;-68
2024/01/26 10:48:29;;;;;;;4.50;1.60;;;13.20;14.70;;;;;;5041159;28;20481;-68
2024/01/26 10:50:57;;;;;;;4.10;1.50;;;13.10;14.90;;;;;;5041984;28;21362;-67
2024/01/26 10:53:25;;;;;;;4.70;1.80;;;13.00;15.20;;;;;;5041153;28;20462;-67
2024/01/26 10:55:53;;;;;;;5.87;1.80;;;13.00;15.30;;;;;;5042854;28;20475;-68
2024/01/26 10:58:20;;;;;;;3.87;1.70;;;12.90;15.50;;;;;;5040748;28;20489;-68
2024/01/26 11:00:49;;;;;;;3.37;1.27;;;12.90;15.70;;;;;;5037421;28;20496;-68
2024/01/26 11:03:16;;;;;;;4.50;1.53;;;13.00;15.70;;;;;;5038079;28;21012;-68
2024/01/26 11:05:49;;;;;;;5.13;1.20;;;13.00;15.60;;;;;;5029322;28;20474;-68
2024/01/26 11:08:25;;;;;;;4.40;1.47;;;13.10;15.70;;;;;;5035691;28;20490;-68
2024/01/26 11:10:54;;;;;;;4.37;1.60;;;13.10;15.70;;;;;;5030038;28;20486;-68
2024/01/26 11:13:23;;;;;;;3.50;1.23;;;13.20;15.40;;;;;;5040033;28;20477;-68
2024/01/26 11:15:52;;;;;;;3.93;1.40;;;13.40;15.40;;;;;;5040351;28;20471;-68
2024/01/26 11:18:24;;;;;;;5.87;1.50;;;13.50;15.20;;;;;;5038967;28;20490;-68
2024/01/26 11:20:51;;;;;;;4.57;1.30;;;13.50;15.00;;;;;;5034360;28;20488;-68
2024/01/26 11:23:18;;;;;;;4.77;1.60;;;13.30;14.20;;;;;;5038794;28;20504;-68
2024/01/26 11:25:47;;;;;;;4.00;1.70;;;13.20;14.40;;;;;;5038800;28;20826;-68
2024/01/26 11:28:17;;;;;;;4.43;1.50;;;13.00;14.40;;;;;;5039180;28;20914;-68
2024/01/26 11:30:53;;;;;;;5.03;1.60;;;12.90;14.80;;;;;;5035759;28;21057;-68
2024/01/26 11:33:22;;;;;;;3.77;1.20;;;12.80;14.90;;;;;;5036892;28;20513;-68
2024/01/26 11:35:49;;;;;;;4.30;1.50;;;12.70;15.00;;;;;;5040202;28;20465;-68
2024/01/26 11:38:18;;;;;;;3.87;1.30;;;12.60;15.40;;;;;;5038648;28;20486;-68
2024/01/26 11:40:46;;;;;;;4.37;1.47;;;12.50;15.60;;;;;;5037885;28;20576;-67
2024/01/26 11:43:13;;;;;;;3.63;1.50;;;12.50;15.80;;;;;;5034444;28;20474;-68
2024/01/26 11:45:42;;;;;;;4.97;1.93;;;12.40;15.70;;;;;;5040874;22;21075;-68
2024/01/26 11:48:11;;;;;;;4.67;1.43;;;12.30;15.80;;;;;;5023932;28;21002;-68
2024/01/26 11:50:40;;;;;;;5.03;1.80;;;12.30;16.10;;;;;;5023467;28;20470;-68
2024/01/26 11:53:07;;;;;;;3.70;1.50;;;12.20;16.30;;;;;;5027109;28;20458;-68
2024/01/26 11:55:34;;;;;;;4.20;1.87;;;12.20;16.50;;;;;;5020127;28;20479;-67
2024/01/26 11:58:01;;;;;;;5.30;1.73;;;12.20;16.50;;;;;;5027204;28;20479;-68
2024/01/26 12:00:28;;;;;;;3.87;1.47;;;12.10;16.70;;;;;;5028007;28;20471;-68
2024/01/26 12:02:55;;;;;;;4.43;1.73;;;12.10;16.90;;;;;;5027363;28;20468;-65
2024/01/26 12:05:23;;;;;;;4.57;1.70;;;12.10;17.00;;;;;;5028722;28;20470;-64
2024/01/26 12:07:50;;;;;;;4.20;1.47;;;12.10;16.90;;;;;;5022994;28;20489;-64
2024/01/26 12:10:17;;;;;;;5.70;1.97;;;12.00;17.50;;;;;;5028854;28;21258;-64
2024/01/26 12:12:47;;;;;;;4.60;1.83;;;12.00;17.20;;;;;;5023903;28;20557;-64
2024/01/26 12:15:14;;;;;;;4.80;1.77;;;12.00;17.30;;;;;;5025303;28;20463;-69
2024/01/26 12:17:41;;;;;;;3.40;1.37;;;12.00;17.20;;;;;;5024942;28;20495;-68
2024/01/26 12:20:10;;;;;;;4.63;1.47;;;12.10;17.50;;;;;;5028434;28;20466;-68
2024/01/26 12:22:39;;;;;;;4.80;1.97;;;12.00;17.60;;;;;;5022614;28;20458;-68
2024/01/26 12:25:27;;;;;;;5.00;1.20;;;12.00;17.60;;;;;;5027881;28;21289;-67
2024/01/26 12:27:54;;;;;;;4.07;1.57;;;12.00;17.80;;;;;;5030067;28;21006;-68
2024/01/26 12:30:21;;;;;;;5.73;2.30;;;12.00;18.00;;;;;;5028811;28;20479;-68
2024/01/26 12:32:48;;;;;;;4.03;1.90;;;12.00;18.20;;;;;;5027689;28;20462;-68
2024/01/26 12:35:15;;;;;;;5.83;1.70;;;12.00;18.30;;;;;;5030294;28;20455;-69
2024/01/26 12:37:44;;;;;;;5.60;2.00;;;12.00;18.50;;;;;;5023123;28;20486;-68
2024/01/26 12:40:12;;;;;;;4.33;2.10;;;11.90;18.70;;;;;;5029789;28;20455;-68
2024/01/26 12:42:40;;;;;;;5.10;1.90;;;11.90;18.80;;;;;;5026479;28;20838;-69
2024/01/26 12:45:07;;;;;;;3.90;1.70;;;11.90;19.00;;;;;;5031539;28;20483;-69
2024/01/26 12:47:34;;;;;;;6.60;2.10;;;11.90;19.20;;;;;;5025432;28;20487;-69
2024/01/26 12:50:01;;;;;;;5.77;1.90;;;11.80;19.30;;;;;;5028893;28;20471;-69